Greenbrier Valley Airport Lewisburg US
ICAO: KLWB
IATA: LWB
Category: Medium
Scheduled Services: No

Elevation: 2302 ft
TransAlt. 18000 ft.

Airport Communications:
AWOS 3:121.4
CLNC DEL:120.85
WASHINGTON CNTR:134.4
CTAF:118.9
GND:121.9
LEWISBURG TWR:118.9
UNICOM:122.95

KLWB Zoom In..

If you have problems with the map follow the link
https://www.worldairports.se/pages/airport.php?
ICAO=KLWB

Runways:

(A) RW 04 length 7003 ft width 150 ft
ILS 110.35 / hdg 43

(B) RW 22 length 7003 ft width 150 ft
---- / hdg 223

Location; KLWB
Day. 05 / Time. 20.55 Zulu
* Altimeter: 30.07
* Temperature: 06° c. 42.8°f.
* Wind from: 290° Speed 07 kn.
Dewpoint: -07° c.
Visibility: 10 Statute Miles.
Clouds: Clear (manual report).

KLWB 052055Z 29007KT 10SM SKC 06/M07 A3007


Wind From 290°
Speed 07 kn.

 
 
jpsmedia worldairports.se 2019   terms of use